Accueil
METAR-TAF:

METAR-TAF

Aéroports :

Aéroport Lourdes-de-Blanc-Sablon

Blanc-Sablon, Québec, Canada

latitude: 51-27N, longitude: 057-11W, altitude: 30 m

Observation

Le bulletin a été fait il y a 19 minutes, à 10:00 UTC
Vent 8 kt de ouest/nord-ouest
Température -24°C
Humidité 63%
Pression 1011 hPa
Visibilité: 24.1 km
Ciel clair

METAR: CYBX 211000Z 30008KT 15SM SKC M24/M29 A2984 RMK SLP113

Heure: 05:19 (10:19 UTC)

Prévision

Le bulletin a été fait il y a 2 heures et 38 minutes, à 07:41 UTC
Prévision valable du 21 à 08 UTC au 21 à 20 UTC
Vent 12 kt de ouest
Visibilité: 10 km
Ciel clair
A partir de 21 à 1500 UTC
Vent 12 kt de ouest avec des rafales jusqu'à 22 kt
Visibilité: 10 km
Quelques nuages à une hauteur de 3000 ft

TAF: CYBX 210741Z 2108/2120 28012KT P6SM SKC FM211500 27012G22KT P6SM FEW030 RMK NXT FCST BY 211400Z

Observations et prévisions météorologiques de plus de 4000 aéroports (messages METAR et TAF).

Les stations disponibles sont représentées par des disques jaunes et rouges sur la carte.

Passer la souris dessus pour voir le nom de la station.

Cliquer dessus pour voir les observations et prévisions météorologiques.

Pour changer de carte: cliquez sur les boutons verts avec une croix noire pour zoomer, sur le bouton vert avec un tiret pour effectuer un zoom arrière, ou sur les flèches vertes pour les cartes adjacentes.


METAR-TAF: